20:34
Airports
Links
Donate
Help keep this website running!
PayPal
Bitcoin
METAR
UIII 222000Z 33002MPS 9999 -SHRA BKN014CB 06/06 Q1006 R30/290150 NOSIG RMK QFE710/0947
Current Weather Conditions at UIII
MVFR 20:00:00 22-09-17
Altimeter:29.70 hg
Temp:6.0°c 43°f
Dew point:6.0°c 43°f
Wind:4 knots, 4.6 mph, 2 m/s, from 330°
Visibility:6.21 statute miles
1400(BKN) Broken
No significant weather changes expected within 2 hours.
Past METAR reports
MVFR 19:30:00 22-09-17
Altimeter:29.68 hg
Temp:6.0°c 43°f
Dew point:6.0°c 43°f
Wind:4 knots, 4.6 mph, 2 m/s, from 310°
Visibility:6.21 statute miles
1500(BKN) Broken
No significant weather changes expected within 2 hours.
UIII 221930Z 31002MPS 9999 BKN015CB 06/06 Q1005 R30/290150 NOSIG RMK QFE710/0947
MVFR 19:00:00 22-09-17
Altimeter:29.68 hg
Temp:7.0°c 45°f
Dew point:6.0°c 43°f
Wind:6 knots, 6.9 mph, 3 m/s, from 290°
Visibility:6.21 statute miles
1300(BKN) Broken
No significant weather changes expected within 2 hours.
UIII 221900Z 29003MPS 9999 -SHRA BKN013CB 07/06 Q1005 R30/290150 NOSIG RMK QFE710/0946
MVFR 18:30:00 22-09-17
Altimeter:29.68 hg
Temp:6.0°c 43°f
Dew point:5.0°c 41°f
Wind:4 knots, 4.6 mph, 2 m/s, from 300°
Visibility:6.21 statute miles
1900(BKN) Broken
No significant weather changes expected within 2 hours.
UIII 221830Z 30002MPS 9999 -SHRASN BKN019CB 06/05 Q1005 R30/60D NOSIG RMK QFE710/0946
VFR 18:00:00 22-09-17
Altimeter:29.68 hg
Temp:5.0°c 41°f
Dew point:4.0°c 39°f
Wind:4 knots, 4.6 mph, 2 m/s, from 310°
Visibility:6.21 statute miles
4000(FEW) A few
No significant weather changes expected within 2 hours.
UIII 221800Z 31002MPS 9999 FEW040CB 05/04 Q1005 R30/CLRD60 NOSIG RMK QFE709/0946
VFR 17:30:00 22-09-17
Altimeter:29.65 hg
Temp:5.0°c 41°f
Dew point:3.0°c 37°f
Wind:6 knots, 6.9 mph, 3 m/s, from 310°
Visibility:6.21 statute miles
4100(FEW) A few
No significant weather changes expected within 2 hours.
UIII 221730Z 31003MPS 9999 FEW041CB 05/03 Q1004 R30/60D NOSIG RMK QFE709/0945
VFR 17:00:00 22-09-17
Altimeter:29.65 hg
Temp:5.0°c 41°f
Dew point:3.0°c 37°f
Wind:2 knots, 2.3 mph, 1 m/s,
Variable direction
Visibility:6.21 statute miles
4300(FEW) A few
No significant weather changes expected within 2 hours.
UIII 221700Z VRB01MPS 9999 FEW043CB 05/03 Q1004 R12/CLRD60 NOSIG RMK QFE711/0948
TAF
TAF UIII 222000Z 2221/2321 30005MPS 3000 -SHRA BR BKN010CB TEMPO 2221/2302 BKN006CB BECMG 2306/2308 9999 NSW
Forecast at UIII
TEMPO 21:00 22-09-17 to 02:00 23-09-17
600BKN Broken
21:00 22-09-17 to 06:00 23-09-17
-SHRA BR
Wind:10 Knots from 300°
Visibility:1.86 statute miles
1000BKN Broken
BECMG 06:00 23-09-17 to 21:00 23-09-17
NSW
Wind:10 Knots from 300°
Visibility:6.21 statute miles
1000BKN Broken